Time;durP1;ratioP1;P1;durP2;ratioP2;P2;SDS_P1;SDS_P2;PMS_P1;PMS_P2;Temp;Humidity;BMP_temperature;BMP_pressure;BME280_temperature;BME280_humidity;BME280_pressure;Samples;Min_cycle;Max_cycle;Signal;HPM_P1;HPM_P2
2022/07/10 04:00:32;;;;;;;8.73;1.20;;;10.30;96.30;;;;;;6040133;23;20462;-78
2022/07/10 04:03:00;;;;;;;10.00;1.30;;;10.30;96.30;;;;;;4986516;28;20445;-78
2022/07/10 04:05:26;;;;;;;3.97;1.03;;;10.30;96.30;;;;;;4973200;28;20979;-78
2022/07/10 04:07:52;;;;;;;4.27;1.50;;;10.30;96.30;;;;;;4956713;28;20417;-78
2022/07/10 04:10:18;;;;;;;3.93;1.07;;;10.30;96.30;;;;;;4985300;28;21025;-78
2022/07/10 04:12:44;;;;;;;9.20;1.47;;;10.40;96.30;;;;;;4994204;28;20420;-78
2022/07/10 04:15:10;;;;;;;11.87;1.40;;;10.40;96.30;;;;;;5001448;28;20237;-78
2022/07/10 04:17:36;;;;;;;7.63;1.20;;;10.40;96.30;;;;;;4997061;28;20188;-78
2022/07/10 04:20:01;;;;;;;6.17;1.30;;;10.40;96.30;;;;;;4993791;28;20960;-78
2022/07/10 04:22:27;;;;;;;4.00;1.10;;;10.40;96.30;;;;;;4993908;28;20193;-79
2022/07/10 04:24:56;;;;;;;3.60;1.53;;;10.40;96.30;;;;;;4976724;28;20184;-79
2022/07/10 04:27:22;;;;;;;4.50;1.00;;;10.40;96.30;;;;;;4975855;28;20476;-78
2022/07/10 04:29:48;;;;;;;5.83;1.20;;;10.40;96.30;;;;;;4993854;28;20416;-78
2022/07/10 04:32:15;;;;;;;6.33;1.50;;;10.50;96.30;;;;;;4976140;28;20516;-77
2022/07/10 04:34:41;;;;;;;5.33;1.00;;;10.50;96.30;;;;;;4969367;28;20877;-77
2022/07/10 04:37:09;;;;;;;10.10;1.70;;;10.50;96.30;;;;;;4963980;28;20514;-78
2022/07/10 04:39:37;;;;;;;7.03;1.63;;;10.60;96.30;;;;;;4977556;28;20193;-74
2022/07/10 04:42:03;;;;;;;7.40;1.20;;;10.60;96.30;;;;;;4994974;28;20429;-74
2022/07/10 04:44:29;;;;;;;6.17;1.97;;;10.50;96.30;;;;;;4994596;28;20444;-75
2022/07/10 04:46:54;;;;;;;4.77;1.60;;;10.50;96.30;;;;;;4989023;28;20836;-75
2022/07/10 04:49:20;;;;;;;8.10;1.30;;;10.50;96.30;;;;;;4975752;28;20649;-75
2022/07/10 04:51:45;;;;;;;7.03;1.77;;;10.50;96.30;;;;;;4976527;28;20200;-75
2022/07/10 04:54:11;;;;;;;2.90;1.00;;;10.50;96.30;;;;;;4994228;28;20185;-75
2022/07/10 04:56:36;;;;;;;4.23;1.10;;;10.50;96.30;;;;;;4994133;28;20178;-75
2022/07/10 04:59:02;;;;;;;4.33;1.00;;;10.50;96.30;;;;;;4976046;28;20188;-74
2022/07/10 05:01:27;;;;;;;5.00;1.10;;;10.60;96.30;;;;;;4993837;28;20215;-74
2022/07/10 05:03:53;;;;;;;4.10;1.40;;;10.60;96.30;;;;;;4994106;28;20193;-75
2022/07/10 05:06:18;;;;;;;5.00;1.30;;;10.60;96.30;;;;;;4993877;28;20656;-78
2022/07/10 05:08:44;;;;;;;11.00;1.37;;;10.50;96.30;;;;;;4992638;28;20170;-78
2022/07/10 05:11:10;;;;;;;4.10;1.37;;;10.60;96.30;;;;;;4993134;28;20208;-79
2022/07/10 05:13:36;;;;;;;2.73;1.00;;;10.60;96.30;;;;;;4975875;28;20189;-78
2022/07/10 05:16:03;;;;;;;3.57;1.00;;;10.60;96.30;;;;;;4993201;28;20419;-79
2022/07/10 05:18:28;;;;;;;3.93;1.20;;;10.70;96.30;;;;;;4992691;28;20500;-79
2022/07/10 05:20:55;;;;;;;14.40;1.30;;;10.70;96.30;;;;;;4992939;28;20615;-75
2022/07/10 05:23:20;;;;;;;4.27;1.00;;;10.70;96.30;;;;;;4994601;28;20201;-75
2022/07/10 05:25:46;;;;;;;10.53;1.50;;;10.70;96.30;;;;;;4994195;28;20959;-75
2022/07/10 05:28:14;;;;;;;11.20;1.93;;;10.80;96.30;;;;;;4992742;28;20182;-75
2022/07/10 05:30:39;;;;;;;3.80;1.20;;;10.80;96.30;;;;;;4975787;28;20201;-75
2022/07/10 05:33:05;;;;;;;8.00;1.30;;;10.90;96.30;;;;;;4976775;28;20901;-75
2022/07/10 05:35:30;;;;;;;2.60;0.90;;;10.90;96.30;;;;;;4993832;28;20618;-75
2022/07/10 05:37:56;;;;;;;5.97;1.23;;;10.90;96.30;;;;;;4992467;28;20211;-75
2022/07/10 05:40:22;;;;;;;6.10;1.30;;;10.90;96.30;;;;;;4974310;28;20205;-78
2022/07/10 05:42:47;;;;;;;4.07;1.20;;;11.10;96.30;;;;;;4991762;28;20169;-78
2022/07/10 05:45:13;;;;;;;4.50;1.47;;;11.20;96.30;;;;;;4992991;28;20544;-75
2022/07/10 05:47:38;;;;;;;6.40;1.10;;;11.40;96.30;;;;;;4992387;28;20531;-77
2022/07/10 05:50:04;;;;;;;11.80;1.67;;;11.40;96.30;;;;;;4992035;28;20181;-77
2022/07/10 05:52:30;;;;;;;7.87;1.00;;;11.60;96.30;;;;;;4992090;28;20674;-78
2022/07/10 05:54:59;;;;;;;4.80;1.00;;;11.80;96.30;;;;;;4974512;28;20413;-78
2022/07/10 05:57:24;;;;;;;4.63;1.23;;;12.00;96.30;;;;;;4955167;28;20658;-78
2022/07/10 05:59:50;;;;;;;11.77;1.80;;;12.40;96.30;;;;;;4953782;29;20546;-78
2022/07/10 06:02:16;;;;;;;4.03;1.53;;;12.50;96.30;;;;;;4936645;29;20641;-75
2022/07/10 06:04:41;;;;;;;3.53;1.00;;;12.70;96.30;;;;;;4953856;29;20254;-75
2022/07/10 06:07:07;;;;;;;4.77;1.10;;;12.90;96.30;;;;;;4953794;29;20646;-76
2022/07/10 06:09:33;;;;;;;6.73;1.00;;;12.90;96.30;;;;;;4969860;28;20272;-76
2022/07/10 06:11:58;;;;;;;8.03;1.33;;;13.50;96.30;;;;;;4976994;28;20212;-78
2022/07/10 06:14:24;;;;;;;6.00;0.87;;;15.00;96.30;;;;;;4969679;28;20178;-75
2022/07/10 06:16:49;;;;;;;5.23;1.23;;;15.80;96.30;;;;;;4956807;28;20195;-76
2022/07/10 06:19:17;;;;;;;1.97;1.00;;;16.10;96.30;;;;;;4953527;29;20185;-78
2022/07/10 06:21:42;;;;;;;4.00;1.10;;;16.40;96.30;;;;;;4978049;28;20624;-79
2022/07/10 06:24:08;;;;;;;5.07;1.60;;;15.60;96.30;;;;;;4975316;28;20449;-79
2022/07/10 06:26:33;;;;;;;2.60;0.90;;;14.50;96.30;;;;;;4992415;28;20257;-79
2022/07/10 06:28:59;;;;;;;4.80;1.20;;;13.80;96.30;;;;;;4992408;28;20232;-79
2022/07/10 06:31:24;;;;;;;6.67;1.00;;;12.90;96.30;;;;;;4992283;28;20811;-79
2022/07/10 06:33:50;;;;;;;2.23;0.70;;;12.30;96.30;;;;;;4992440;28;20174;-78
2022/07/10 06:36:15;;;;;;;7.13;1.20;;;12.10;96.30;;;;;;4974994;28;20229;-77
2022/07/10 06:38:41;;;;;;;4.50;1.20;;;12.30;96.30;;;;;;4974257;28;20173;-78
2022/07/10 06:41:06;;;;;;;3.37;0.70;;;12.50;96.30;;;;;;4967873;28;20206;-79
2022/07/10 06:43:32;;;;;;;5.07;1.00;;;12.50;96.30;;;;;;4962492;28;20537;-78
2022/07/10 06:45:58;;;;;;;4.13;1.20;;;12.50;96.30;;;;;;4964212;28;20194;-77
2022/07/10 06:48:26;;;;;;;2.20;1.10;;;12.50;96.30;;;;;;4971095;28;20583;-78
2022/07/10 06:50:51;;;;;;;5.50;1.13;;;12.40;96.30;;;;;;4974646;28;20447;-77
2022/07/10 06:53:17;;;;;;;3.07;1.40;;;12.10;96.30;;;;;;4958950;28;20413;-77
2022/07/10 06:55:43;;;;;;;4.60;0.83;;;11.90;96.30;;;;;;4976389;28;20541;-78
2022/07/10 06:58:08;;;;;;;3.00;1.10;;;11.80;96.30;;;;;;4976104;28;20425;-78
2022/07/10 07:00:34;;;;;;;10.03;1.30;;;11.90;96.30;;;;;;4973733;28;20205;-76
2022/07/10 07:02:59;;;;;;;2.33;0.97;;;12.10;96.30;;;;;;4975990;28;20187;-78
2022/07/10 07:05:25;;;;;;;2.70;0.80;;;12.40;96.30;;;;;;4976264;28;20178;-78
2022/07/10 07:07:50;;;;;;;6.07;1.00;;;12.90;96.30;;;;;;4975758;28;20178;-78
2022/07/10 07:10:16;;;;;;;4.13;1.00;;;12.90;96.30;;;;;;4988609;28;20189;-78
2022/07/10 07:12:41;;;;;;;4.73;1.10;;;12.90;96.30;;;;;;4995406;28;20197;-78
2022/07/10 07:15:07;;;;;;;3.20;0.80;;;12.90;96.30;;;;;;4979664;28;20217;-78
2022/07/10 07:17:56;;;;;;;3.93;1.23;;;12.60;96.30;;;;;;4957487;28;20182;-77
2022/07/10 07:23:09;;;;;;;1.30;0.77;;;12.10;96.30;;;;;;4984351;28;20963;-77
2022/07/10 07:25:35;;;;;;;4.67;0.90;;;12.00;96.30;;;;;;4977645;28;20469;-75
2022/07/10 07:28:00;;;;;;;4.03;1.00;;;11.90;96.30;;;;;;4960328;28;20422;-77
2022/07/10 07:30:26;;;;;;;5.17;1.97;;;11.90;96.30;;;;;;4960542;28;20261;-77
2022/07/10 07:32:51;;;;;;;2.40;1.00;;;12.00;96.30;;;;;;4977994;28;20179;-77
2022/07/10 07:35:17;;;;;;;2.67;0.90;;;12.00;96.30;;;;;;4960463;28;20262;-76
2022/07/10 07:37:45;;;;;;;5.23;1.10;;;12.00;96.30;;;;;;4977574;28;20178;-77
2022/07/10 07:40:13;;;;;;;3.77;0.90;;;12.00;96.30;;;;;;4965566;28;20707;-76
2022/07/10 07:42:39;;;;;;;2.30;1.17;;;12.10;96.30;;;;;;4958326;28;20465;-79
2022/07/10 07:45:05;;;;;;;2.20;1.00;;;12.00;96.30;;;;;;4975545;28;20810;-79
2022/07/10 07:47:41;;;;;;;4.97;1.00;;;12.00;96.30;;;;;;4971658;28;20649;-77
2022/07/10 07:50:07;;;;;;;1.77;0.90;;;12.10;96.30;;;;;;4953872;28;20429;-78
2022/07/10 07:52:35;;;;;;;2.80;1.30;;;12.20;96.30;;;;;;4967745;28;20442;-76
2022/07/10 07:55:00;;;;;;;2.27;1.00;;;12.10;96.30;;;;;;4976163;28;20188;-79
2022/07/10 07:57:26;;;;;;;5.00;1.30;;;11.90;96.30;;;;;;4966700;28;20410;-78
2022/07/10 07:59:51;;;;;;;3.67;1.27;;;11.70;96.30;;;;;;4975634;28;20221;-79
2022/07/10 08:02:17;;;;;;;3.00;1.13;;;11.40;96.30;;;;;;4973932;28;20206;-80
2022/07/10 08:04:42;;;;;;;2.97;1.13;;;11.00;96.30;;;;;;4957932;28;20185;-81
2022/07/10 08:07:08;;;;;;;2.80;0.90;;;10.90;96.30;;;;;;4975117;28;20182;-80
2022/07/10 08:09:34;;;;;;;4.07;1.00;;;10.70;96.30;;;;;;4959464;28;20261;-77
2022/07/10 08:12:00;;;;;;;3.30;0.97;;;10.60;96.30;;;;;;4947265;28;20206;-76
2022/07/10 08:14:26;;;;;;;1.63;0.80;;;10.50;96.30;;;;;;4965922;28;20426;-76
2022/07/10 08:16:51;;;;;;;2.30;0.90;;;10.50;96.30;;;;;;4959193;28;20698;-76
2022/07/10 08:19:17;;;;;;;3.27;1.00;;;10.60;96.30;;;;;;4969470;28;20178;-77
2022/07/10 08:21:43;;;;;;;4.10;0.90;;;10.70;96.30;;;;;;4958073;28;20206;-76
2022/07/10 08:24:08;;;;;;;2.43;0.80;;;10.60;96.30;;;;;;4962878;28;20477;-76
2022/07/10 08:26:34;;;;;;;3.93;1.03;;;10.60;96.30;;;;;;4956615;28;21783;-80
2022/07/10 08:28:59;;;;;;;1.63;0.87;;;10.60;96.30;;;;;;4973945;28;20268;-80
2022/07/10 08:31:25;;;;;;;2.93;0.70;;;10.50;96.30;;;;;;4956842;28;20207;-79
2022/07/10 08:33:52;;;;;;;6.40;1.00;;;10.40;96.30;;;;;;4973296;28;20574;-80
2022/07/10 08:36:17;;;;;;;2.83;0.80;;;10.40;96.30;;;;;;4974910;28;20180;-80
2022/07/10 08:38:43;;;;;;;1.00;0.80;;;10.50;96.30;;;;;;4974537;28;20509;-80
2022/07/10 08:41:12;;;;;;;4.73;1.00;;;10.70;96.30;;;;;;4975262;28;20224;-79
2022/07/10 08:43:37;;;;;;;3.83;1.30;;;10.90;96.30;;;;;;4975122;28;20274;-77
2022/07/10 08:46:05;;;;;;;4.00;1.10;;;11.30;96.30;;;;;;4967603;28;20449;-80
2022/07/10 08:48:35;;;;;;;5.30;1.17;;;11.80;96.30;;;;;;4964271;28;20647;-79
2022/07/10 08:51:06;;;;;;;2.97;0.90;;;12.30;96.30;;;;;;4966491;28;20845;-78
2022/07/10 08:53:32;;;;;;;2.60;0.90;;;12.60;96.30;;;;;;4976573;28;20484;-80
2022/07/10 08:55:58;;;;;;;4.17;1.00;;;13.00;96.30;;;;;;4970590;28;20414;-79
2022/07/10 08:58:26;;;;;;;5.80;1.20;;;13.20;96.30;;;;;;4958110;28;20265;-79
2022/07/10 09:00:51;;;;;;;1.67;1.00;;;13.30;96.30;;;;;;4954210;28;20469;-78
2022/07/10 09:03:17;;;;;;;3.40;1.10;;;13.10;96.30;;;;;;4954884;28;20493;-80
2022/07/10 09:05:42;;;;;;;6.90;1.40;;;13.20;96.30;;;;;;4943658;28;20179;-78
2022/07/10 09:08:26;;;;;;;5.73;1.17;;;13.30;96.30;;;;;;4964854;28;20179;-78
2022/07/10 09:10:52;;;;;;;3.40;1.63;;;13.40;96.30;;;;;;4973900;28;20736;-78
2022/07/10 09:13:18;;;;;;;3.57;1.23;;;13.50;96.30;;;;;;4951245;28;20428;-77
2022/07/10 09:15:48;;;;;;;2.83;1.13;;;13.60;96.30;;;;;;4960715;28;20174;-78
2022/07/10 09:18:19;;;;;;;4.73;1.47;;;13.80;96.30;;;;;;4961591;28;20186;-78
2022/07/10 09:20:46;;;;;;;6.90;1.37;;;13.50;96.30;;;;;;4978437;28;20469;-78
2022/07/10 09:23:25;;;;;;;5.90;1.20;;;13.60;96.30;;;;;;4945035;29;20407;-78
2022/07/10 09:25:52;;;;;;;7.70;1.53;;;14.00;96.30;;;;;;4950757;28;20468;-77
2022/07/10 09:28:22;;;;;;;3.47;1.27;;;14.40;96.30;;;;;;4952112;28;20423;-78
2022/07/10 09:30:48;;;;;;;5.70;1.50;;;15.40;96.30;;;;;;4967292;28;20967;-77
2022/07/10 09:33:30;;;;;;;4.77;1.10;;;15.90;96.30;;;;;;4972485;28;20429;-77
2022/07/10 09:36:06;;;;;;;5.70;1.07;;;16.40;96.30;;;;;;4970694;28;20409;-77
2022/07/10 09:38:44;;;;;;;3.60;1.03;;;17.00;96.30;;;;;;4954580;28;20406;-77
2022/07/10 09:41:14;;;;;;;5.20;1.37;;;17.20;96.30;;;;;;4989096;28;20496;-78
2022/07/10 09:44:11;;;;;;;2.90;1.30;;;16.70;96.30;;;;;;4943855;28;20802;-78
2022/07/10 09:46:38;;;;;;;3.47;1.20;;;16.50;96.30;;;;;;4951033;28;20429;-76
2022/07/10 09:49:09;;;;;;;6.33;1.40;;;16.30;96.30;;;;;;4970629;28;20418;-78
2022/07/10 09:51:40;;;;;;;6.40;1.80;;;16.90;96.30;;;;;;4971346;28;20943;-79
2022/07/10 09:54:08;;;;;;;7.63;1.60;;;16.70;96.30;;;;;;4966097;28;20436;-78
2022/07/10 09:56:41;;;;;;;4.40;1.20;;;16.00;96.30;;;;;;4968138;28;20418;-78
2022/07/10 09:59:14;;;;;;;2.40;1.23;;;15.60;96.30;;;;;;4963935;28;20431;-78
2022/07/10 10:01:45;;;;;;;1.20;1.00;;;15.70;96.30;;;;;;4973523;28;20464;-78
2022/07/10 10:04:12;;;;;;;8.80;1.37;;;16.00;96.30;;;;;;4967488;28;20494;-78
2022/07/10 10:06:39;;;;;;;1.10;0.80;;;15.80;96.30;;;;;;4973040;28;20921;-75
2022/07/10 10:09:37;;;;;;;3.17;0.87;;;15.90;96.30;;;;;;4973088;28;20410;-76
2022/07/10 10:12:15;;;;;;;2.53;1.00;;;16.30;96.30;;;;;;4950261;28;20536;-77
2022/07/10 10:14:41;;;;;;;2.57;1.20;;;16.90;96.30;;;;;;4972970;28;20441;-76
2022/07/10 10:17:08;;;;;;;4.30;1.10;;;16.30;96.30;;;;;;4955280;28;20434;-77
2022/07/10 10:22:19;;;;;;;2.07;0.90;;;14.50;96.30;;;;;;4957945;28;20477;-75
2022/07/10 10:24:45;;;;;;;1.77;0.93;;;13.90;96.30;;;;;;4953529;28;20476;-77
2022/07/10 10:27:11;;;;;;;4.93;1.30;;;13.90;96.30;;;;;;4977216;28;20516;-76
2022/07/10 10:29:38;;;;;;;2.67;0.80;;;14.10;96.30;;;;;;4975515;28;20483;-75
2022/07/10 10:32:04;;;;;;;2.43;1.60;;;14.40;96.30;;;;;;4979097;28;20241;-76
2022/07/10 10:34:58;;;;;;;2.33;0.90;;;14.60;96.30;;;;;;4978768;28;20414;-75
2022/07/10 10:37:26;;;;;;;3.70;1.13;;;14.60;96.30;;;;;;4964212;28;20450;-75
2022/07/10 10:39:56;;;;;;;3.47;1.07;;;14.60;96.30;;;;;;4979575;28;21019;-76
2022/07/10 10:42:43;;;;;;;3.73;1.00;;;14.80;96.30;;;;;;4981639;28;20498;-75
2022/07/10 10:45:35;;;;;;;3.97;0.93;;;15.10;96.30;;;;;;4967564;28;20417;-76
2022/07/10 10:48:10;;;;;;;4.07;1.13;;;15.30;96.30;;;;;;4977444;28;20420;-76
2022/07/10 10:50:45;;;;;;;3.90;1.00;;;15.40;96.30;;;;;;4958948;28;20406;-75
2022/07/10 10:53:20;;;;;;;3.60;1.10;;;15.20;96.30;;;;;;4977589;28;20409;-75
2022/07/10 10:56:04;;;;;;;3.97;1.17;;;15.50;96.30;;;;;;4976704;28;20797;-78
2022/07/10 10:58:38;;;;;;;6.00;1.37;;;15.40;96.30;;;;;;4955897;28;20528;-79
2022/07/10 11:01:05;;;;;;;3.20;1.07;;;15.40;96.30;;;;;;4978201;28;20473;-75
2022/07/10 11:03:30;;;;;;;4.87;1.17;;;15.20;96.30;;;;;;4969172;28;20433;-76
2022/07/10 11:05:56;;;;;;;2.80;1.10;;;15.20;96.30;;;;;;4941544;29;20414;-75
2022/07/10 11:08:43;;;;;;;5.93;1.70;;;15.20;96.30;;;;;;4941144;29;20179;-75
2022/07/10 11:11:31;;;;;;;5.37;1.20;;;15.10;96.30;;;;;;4997340;28;20209;-75
2022/07/10 11:13:57;;;;;;;6.70;1.27;;;15.00;96.30;;;;;;4958890;29;20454;-75
2022/07/10 11:16:24;;;;;;;6.13;1.10;;;14.90;96.30;;;;;;4958056;29;20886;-76
2022/07/10 11:18:53;;;;;;;4.10;1.20;;;15.30;96.30;;;;;;4939852;29;20422;-75
2022/07/10 11:21:24;;;;;;;2.50;1.00;;;15.60;96.30;;;;;;4960014;28;20483;-77
2022/07/10 11:24:01;;;;;;;6.00;1.97;;;16.00;96.30;;;;;;4969443;28;20771;-76
2022/07/10 11:26:36;;;;;;;2.27;1.10;;;16.10;96.30;;;;;;4966030;28;20869;-77
2022/07/10 11:29:06;;;;;;;4.27;1.30;;;15.70;96.30;;;;;;4959726;28;20535;-75
2022/07/10 11:31:37;;;;;;;2.50;1.10;;;15.80;96.30;;;;;;4975555;28;20438;-79
2022/07/10 11:34:03;;;;;;;2.97;1.10;;;16.50;96.30;;;;;;4976620;28;20418;-78
2022/07/10 11:36:31;;;;;;;6.93;1.50;;;16.50;96.30;;;;;;4976121;28;20422;-79
2022/07/10 11:39:00;;;;;;;9.17;1.80;;;16.70;96.30;;;;;;4958013;28;20425;-79
2022/07/10 11:41:26;;;;;;;1.80;1.23;;;16.30;96.30;;;;;;4976342;28;20495;-78
2022/07/10 11:43:57;;;;;;;8.83;1.27;;;16.20;96.30;;;;;;4975407;28;20536;-79
2022/07/10 11:46:28;;;;;;;6.30;0.97;;;16.20;96.30;;;;;;4971890;28;20418;-79
2022/07/10 11:48:56;;;;;;;2.87;1.33;;;15.90;96.30;;;;;;4954365;28;20508;-79
2022/07/10 11:51:41;;;;;;;3.97;1.10;;;15.80;96.30;;;;;;4970779;28;20453;-78
2022/07/10 11:54:10;;;;;;;4.60;1.30;;;15.80;96.30;;;;;;4963441;28;20420;-77
2022/07/10 11:56:38;;;;;;;3.17;1.33;;;16.30;96.30;;;;;;4973134;28;20437;-77
2022/07/10 11:59:05;;;;;;;9.43;1.20;;;16.50;96.30;;;;;;4969017;28;20964;-77
2022/07/10 12:01:33;;;;;;;6.60;1.33;;;17.00;96.30;;;;;;4974402;28;20553;-76
2022/07/10 12:04:02;;;;;;;6.07;1.57;;;16.40;96.30;;;;;;4971464;28;20437;-77
2022/07/10 12:06:29;;;;;;;8.20;1.60;;;15.70;96.30;;;;;;4957554;28;20417;-77
2022/07/10 12:08:55;;;;;;;2.63;1.10;;;15.50;96.30;;;;;;4971744;28;20429;-75
2022/07/10 12:11:22;;;;;;;12.07;1.77;;;15.80;96.30;;;;;;4957397;28;20814;-75
2022/07/10 12:13:50;;;;;;;6.53;1.33;;;16.10;96.30;;;;;;4959425;28;20907;-74
2022/07/10 12:16:16;;;;;;;3.43;1.27;;;16.40;96.30;;;;;;4973986;28;20427;-77
2022/07/10 12:18:43;;;;;;;3.60;1.23;;;17.40;96.30;;;;;;4972254;28;20797;-77
2022/07/10 12:21:10;;;;;;;6.57;1.30;;;17.70;96.30;;;;;;4974604;28;20630;-77
2022/07/10 12:23:40;;;;;;;6.13;1.70;;;17.80;96.30;;;;;;4974069;28;20413;-77
2022/07/10 12:26:09;;;;;;;3.13;1.20;;;17.80;96.30;;;;;;4973982;28;20414;-77
2022/07/10 12:28:55;;;;;;;4.50;2.10;;;17.80;96.30;;;;;;4974280;28;20450;-77
2022/07/10 12:31:31;;;;;;;6.00;1.67;;;17.10;96.30;;;;;;4973966;28;20441;-77
2022/07/10 12:34:02;;;;;;;6.50;1.50;;;16.80;96.30;;;;;;4974577;28;20421;-77
2022/07/10 12:36:53;;;;;;;8.50;1.40;;;17.00;96.30;;;;;;4974494;28;20483;-74
2022/07/10 12:39:23;;;;;;;6.53;1.20;;;16.80;96.30;;;;;;4975094;28;20504;-73
2022/07/10 12:42:06;;;;;;;6.10;1.23;;;17.00;96.30;;;;;;4993934;28;20429;-73
2022/07/10 12:44:50;;;;;;;13.47;2.43;;;17.30;96.30;;;;;;4993992;28;20500;-74
2022/07/10 12:47:20;;;;;;;6.00;1.20;;;17.40;96.30;;;;;;4976353;28;20819;-76
2022/07/10 12:49:56;;;;;;;2.97;1.40;;;16.90;96.30;;;;;;4993535;28;20417;-73
2022/07/10 12:52:48;;;;;;;2.80;1.27;;;16.40;96.30;;;;;;4993753;28;20487;-77
2022/07/10 12:55:25;;;;;;;8.53;1.47;;;16.60;96.30;;;;;;4990854;28;20435;-73
2022/07/10 12:57:59;;;;;;;10.87;1.80;;;17.10;96.30;;;;;;4993503;28;20404;-74
2022/07/10 13:00:34;;;;;;;4.30;1.40;;;17.70;96.30;;;;;;4975954;28;20547;-76
2022/07/10 13:03:17;;;;;;;8.33;1.43;;;17.90;96.30;;;;;;4976099;28;20932;-74
2022/07/10 13:05:43;;;;;;;4.03;1.20;;;18.00;96.30;;;;;;4976023;28;20408;-74
2022/07/10 13:08:22;;;;;;;4.53;1.40;;;17.60;96.30;;;;;;4993179;28;20467;-73
2022/07/10 13:10:50;;;;;;;6.73;1.60;;;17.00;96.30;;;;;;4993680;28;20535;-73
2022/07/10 13:13:15;;;;;;;2.90;1.13;;;16.40;96.30;;;;;;4993475;28;20409;-73
2022/07/10 13:15:56;;;;;;;9.50;1.70;;;15.90;96.30;;;;;;4993514;28;20409;-74
2022/07/10 13:18:24;;;;;;;9.37;1.60;;;16.00;96.30;;;;;;4993181;28;20197;-74
2022/07/10 13:20:51;;;;;;;5.50;1.87;;;15.80;96.30;;;;;;4993139;28;20543;-74
2022/07/10 13:23:21;;;;;;;8.37;1.43;;;15.90;96.30;;;;;;4993236;28;20436;-73
2022/07/10 13:25:48;;;;;;;5.13;1.20;;;16.00;96.30;;;;;;4993368;28;20969;-73
2022/07/10 13:28:16;;;;;;;9.13;1.30;;;16.20;96.30;;;;;;4993008;28;20440;-74
2022/07/10 13:30:42;;;;;;;11.93;1.93;;;16.40;96.30;;;;;;4992963;28;20417;-74
2022/07/10 13:33:07;;;;;;;6.80;1.67;;;16.80;96.30;;;;;;4993172;28;20487;-76
2022/07/10 13:35:34;;;;;;;7.87;1.67;;;17.30;96.30;;;;;;4993217;28;20203;-74
2022/07/10 13:38:01;;;;;;;4.40;1.33;;;18.00;96.30;;;;;;4992694;28;20694;-74
2022/07/10 13:40:31;;;;;;;4.03;1.30;;;18.80;96.30;;;;;;4992700;28;20540;-74
2022/07/10 13:42:57;;;;;;;7.47;1.70;;;18.20;96.30;;;;;;4992744;28;20420;-73
2022/07/10 13:45:25;;;;;;;4.40;1.10;;;17.80;96.30;;;;;;4992918;28;20413;-74
2022/07/10 13:47:53;;;;;;;2.90;1.20;;;17.50;96.30;;;;;;4975173;28;20412;-74
2022/07/10 13:50:18;;;;;;;8.80;1.63;;;17.30;96.30;;;;;;4992826;28;20550;-74
2022/07/10 13:52:44;;;;;;;14.10;1.20;;;17.20;96.30;;;;;;4992604;28;20531;-75
2022/07/10 13:55:10;;;;;;;3.00;1.10;;;17.40;96.30;;;;;;4992858;28;20173;-73
2022/07/10 13:57:35;;;;;;;7.63;1.47;;;17.50;96.30;;;;;;4992508;28;20170;-74
2022/07/10 14:00:01;;;;;;;3.60;1.40;;;17.90;96.30;;;;;;4991901;28;20193;-73
2022/07/10 14:02:26;;;;;;;2.87;1.20;;;17.90;96.30;;;;;;4992809;28;20216;-74
2022/07/10 14:04:52;;;;;;;5.13;1.50;;;18.00;96.30;;;;;;4992850;28;20256;-74
2022/07/10 14:07:17;;;;;;;3.67;1.00;;;17.60;96.30;;;;;;4992686;28;20181;-73
2022/07/10 14:09:43;;;;;;;2.90;1.23;;;17.00;96.30;;;;;;4992466;28;20208;-73
2022/07/10 14:12:08;;;;;;;5.40;1.10;;;17.00;96.30;;;;;;4992580;28;20210;-73
2022/07/10 14:14:34;;;;;;;5.67;1.37;;;17.20;96.30;;;;;;4992674;28;20181;-73
2022/07/10 14:16:59;;;;;;;7.23;1.40;;;17.50;96.30;;;;;;4992596;28;20188;-73
2022/07/10 14:19:25;;;;;;;6.97;1.47;;;17.50;96.30;;;;;;4992266;28;20177;-76
2022/07/10 14:21:50;;;;;;;3.03;1.17;;;18.20;96.30;;;;;;4992411;28;20245;-73
2022/07/10 14:24:16;;;;;;;7.63;1.43;;;18.10;96.30;;;;;;4992446;28;20209;-73
2022/07/10 14:26:41;;;;;;;8.40;1.70;;;18.30;96.30;;;;;;4992443;28;20622;-76
2022/07/10 14:29:07;;;;;;;3.27;0.90;;;18.30;96.30;;;;;;4961979;28;20186;-76
2022/07/10 14:31:32;;;;;;;11.13;1.53;;;18.10;96.30;;;;;;4955286;29;20605;-77
2022/07/10 14:33:58;;;;;;;3.83;1.13;;;18.10;96.30;;;;;;4960425;28;20602;-77
2022/07/10 14:36:26;;;;;;;9.23;1.30;;;18.00;96.30;;;;;;4966652;28;20541;-77
2022/07/10 14:38:53;;;;;;;5.70;1.57;;;17.90;96.30;;;;;;4972176;28;20175;-76
2022/07/10 14:41:18;;;;;;;6.30;1.53;;;17.90;96.30;;;;;;4972693;28;20468;-77
2022/07/10 14:43:44;;;;;;;6.87;1.10;;;17.90;96.30;;;;;;4972685;28;20417;-76
2022/07/10 14:46:09;;;;;;;2.30;1.00;;;18.20;96.30;;;;;;4972723;28;20202;-77
2022/07/10 14:48:35;;;;;;;5.07;1.40;;;18.70;95.90;;;;;;4972281;28;20178;-77
2022/07/10 14:51:01;;;;;;;5.00;1.53;;;18.20;96.30;;;;;;4972489;28;20190;-76
2022/07/10 14:53:27;;;;;;;5.20;1.40;;;17.40;96.30;;;;;;4972765;28;20417;-77
2022/07/10 14:55:52;;;;;;;7.67;1.20;;;17.30;96.30;;;;;;4972004;28;20191;-77
2022/07/10 14:58:18;;;;;;;6.97;1.40;;;17.00;96.30;;;;;;4969685;28;20682;-75
2022/07/10 15:00:43;;;;;;;4.13;1.37;;;16.70;96.30;;;;;;4972584;28;20202;-74
2022/07/10 15:03:09;;;;;;;4.93;1.10;;;16.80;96.30;;;;;;4955395;28;20618;-74
2022/07/10 15:05:35;;;;;;;4.67;1.47;;;16.90;96.30;;;;;;4972737;28;20174;-74
2022/07/10 15:08:02;;;;;;;8.30;1.63;;;17.20;96.30;;;;;;4971676;28;20548;-74
2022/07/10 15:10:28;;;;;;;3.53;1.07;;;17.30;96.30;;;;;;4982995;28;20205;-75
2022/07/10 15:12:53;;;;;;;3.87;1.50;;;17.50;96.30;;;;;;4982913;28;20449;-74
2022/07/10 15:15:19;;;;;;;3.83;1.47;;;17.50;96.30;;;;;;4995554;28;20205;-75
2022/07/10 15:17:44;;;;;;;4.40;1.07;;;17.60;96.30;;;;;;4995095;28;20190;-74
2022/07/10 15:20:11;;;;;;;2.50;1.10;;;17.70;96.30;;;;;;4988517;28;20202;-74
2022/07/10 15:22:36;;;;;;;7.93;1.50;;;17.70;96.30;;;;;;4975958;28;20697;-75
2022/07/10 15:25:02;;;;;;;6.87;1.47;;;17.60;96.30;;;;;;4958895;28;20437;-74
2022/07/10 15:27:28;;;;;;;6.70;1.43;;;17.50;96.30;;;;;;4975609;28;20183;-75
2022/07/10 15:29:54;;;;;;;4.50;1.10;;;17.10;96.30;;;;;;4969615;28;20807;-74
2022/07/10 15:32:20;;;;;;;3.47;1.03;;;16.70;96.30;;;;;;4994201;28;20228;-75
2022/07/10 15:34:45;;;;;;;2.87;1.20;;;16.60;96.30;;;;;;4993550;28;20766;-75
2022/07/10 15:37:11;;;;;;;2.50;1.07;;;16.70;96.30;;;;;;4980488;28;20185;-74
2022/07/10 15:39:43;;;;;;;4.10;1.27;;;16.90;96.30;;;;;;4979470;28;20181;-74
2022/07/10 15:42:10;;;;;;;5.07;1.23;;;16.90;96.30;;;;;;4994966;28;20941;-74
2022/07/10 15:44:36;;;;;;;5.57;1.20;;;17.00;96.30;;;;;;4995063;28;20409;-74
2022/07/10 15:47:01;;;;;;;5.00;1.40;;;17.30;96.30;;;;;;4994982;28;20409;-74
2022/07/10 15:49:27;;;;;;;4.07;1.47;;;17.70;96.30;;;;;;4977117;28;20209;-74
2022/07/10 15:51:52;;;;;;;3.43;1.13;;;17.80;96.30;;;;;;4993077;28;20200;-74
2022/07/10 15:54:20;;;;;;;4.03;1.00;;;17.60;96.30;;;;;;4977239;28;20588;-73
2022/07/10 15:56:46;;;;;;;8.43;1.77;;;17.20;96.30;;;;;;4957911;28;20179;-74
2022/07/10 15:59:11;;;;;;;5.90;1.40;;;17.10;96.30;;;;;;4975033;28;20424;-74
2022/07/10 16:01:37;;;;;;;7.33;1.43;;;17.40;96.30;;;;;;4974876;28;20218;-74
2022/07/10 16:04:03;;;;;;;4.07;1.10;;;17.20;96.30;;;;;;4957829;28;20232;-76
2022/07/10 16:06:28;;;;;;;14.67;1.77;;;17.60;96.30;;;;;;4974865;28;20221;-74
2022/07/10 16:08:54;;;;;;;6.67;1.40;;;17.70;96.30;;;;;;4959149;28;20257;-74
2022/07/10 16:11:22;;;;;;;3.73;1.17;;;17.90;95.10;;;;;;4976916;28;20539;-74
2022/07/10 16:13:50;;;;;;;5.37;1.53;;;18.20;96.10;;;;;;4994582;28;20521;-74
2022/07/10 16:16:15;;;;;;;3.67;1.30;;;18.30;96.30;;;;;;4994256;28;20508;-74
2022/07/10 16:18:41;;;;;;;5.27;1.50;;;17.90;95.90;;;;;;4976903;28;20526;-74
2022/07/10 16:21:07;;;;;;;3.50;1.33;;;17.40;96.30;;;;;;4994039;28;20209;-74
2022/07/10 16:23:33;;;;;;;5.30;1.50;;;17.20;96.30;;;;;;4993597;28;20200;-75
2022/07/10 16:26:01;;;;;;;4.60;1.00;;;17.20;96.30;;;;;;4994347;28;20408;-75
2022/07/10 16:28:28;;;;;;;5.80;1.23;;;17.10;96.30;;;;;;4974105;28;20170;-75
2022/07/10 16:30:54;;;;;;;5.67;1.17;;;17.00;96.30;;;;;;4961659;28;20440;-75
2022/07/10 16:33:19;;;;;;;5.37;1.10;;;17.20;96.30;;;;;;4976597;28;20835;-75
2022/07/10 16:35:45;;;;;;;7.33;1.20;;;17.30;96.30;;;;;;4993854;28;20606;-75
2022/07/10 16:38:13;;;;;;;3.60;1.10;;;17.50;96.30;;;;;;4993888;28;20197;-75
2022/07/10 16:40:39;;;;;;;5.73;1.30;;;17.50;96.30;;;;;;4988734;28;20469;-75
2022/07/10 16:43:05;;;;;;;7.03;1.23;;;17.40;96.30;;;;;;4957360;28;20432;-75
2022/07/10 16:45:30;;;;;;;7.60;1.60;;;17.40;96.30;;;;;;4974715;28;20414;-75
2022/07/10 16:47:57;;;;;;;3.70;1.17;;;17.30;95.40;;;;;;4974690;28;20174;-75
2022/07/10 16:50:22;;;;;;;6.17;1.50;;;17.10;96.30;;;;;;4986739;28;20174;-75
2022/07/10 16:52:48;;;;;;;5.60;1.60;;;16.80;96.30;;;;;;4976499;28;20440;-76
2022/07/10 16:55:14;;;;;;;3.57;0.90;;;16.80;96.30;;;;;;4974649;28;20201;-75